Time;durP1;ratioP1;P1;durP2;ratioP2;P2;SDS_P1;SDS_P2;PMS_P1;PMS_P2;Temp;Humidity;BMP_temperature;BMP_pressure;BME280_temperature;BME280_humidity;BME280_pressure;Samples;Min_cycle;Max_cycle;Signal;HPM_P1;HPM_P2
2022/12/15 00:38:57;;;;;;;86.15;33.88;;;-4.60;99.90;;;;;;5077569;28;20075;-89
2022/12/15 00:41:22;;;;;;;91.88;34.63;;;-4.60;99.90;;;;;;5056665;28;20021;-89
2022/12/15 00:43:48;;;;;;;91.18;35.00;;;-4.50;99.90;;;;;;5079051;28;20028;-91
2022/12/15 00:48:58;;;;;;;93.30;36.33;;;-4.60;99.90;;;;;;5092642;28;20115;-89
2022/12/15 01:21:44;;;;;;;120.85;41.45;;;-4.50;99.90;;;;;;5092615;28;20074;-89
2022/12/15 01:24:10;;;;;;;122.57;42.88;;;-4.50;99.90;;;;;;5076573;28;20020;-89
2022/12/15 01:26:36;;;;;;;115.50;41.58;;;-4.50;99.90;;;;;;5075215;28;20480;-89
2022/12/15 01:29:04;;;;;;;117.38;40.22;;;-4.50;99.90;;;;;;5058026;28;20054;-89
2022/12/15 01:31:30;;;;;;;99.05;36.70;;;-4.50;99.90;;;;;;5075063;28;20043;-89
2022/12/15 01:33:56;;;;;;;89.88;35.10;;;-4.40;99.90;;;;;;5074932;28;20021;-90
2022/12/15 01:36:21;;;;;;;93.03;34.72;;;-4.50;99.90;;;;;;5075260;28;20032;-90
2022/12/15 01:38:47;;;;;;;86.05;33.17;;;-4.50;99.90;;;;;;5075081;28;20052;-89
2022/12/15 01:41:12;;;;;;;84.70;31.98;;;-4.40;99.90;;;;;;5058295;28;20036;-89
2022/12/15 01:43:39;;;;;;;83.97;32.83;;;-4.40;99.90;;;;;;5074895;28;20029;-89
2022/12/15 01:46:11;;;;;;;83.80;32.33;;;-4.40;99.90;;;;;;5058225;28;20024;-89
2022/12/15 01:49:01;;;;;;;79.20;31.73;;;-4.50;99.90;;;;;;5075069;28;20024;-89
2022/12/15 01:51:38;;;;;;;76.65;29.33;;;-4.50;99.90;;;;;;5074733;28;20032;-89
2022/12/15 01:54:05;;;;;;;75.60;31.48;;;-4.40;99.90;;;;;;5074727;28;20037;-89
2022/12/15 01:56:33;;;;;;;72.88;30.75;;;-4.40;99.90;;;;;;5091349;28;20025;-89
2022/12/15 01:59:01;;;;;;;70.15;29.15;;;-4.50;99.90;;;;;;5074033;28;20020;-89
2022/12/15 02:01:28;;;;;;;76.28;29.35;;;-4.40;99.90;;;;;;5074523;28;20031;-89
2022/12/15 02:03:54;;;;;;;78.80;31.85;;;-4.50;99.90;;;;;;5057810;28;20484;-89
2022/12/15 02:06:21;;;;;;;82.43;28.90;;;-4.50;99.90;;;;;;5072010;28;20078;-89
2022/12/15 02:08:50;;;;;;;73.15;30.75;;;-4.50;99.90;;;;;;5091014;28;20044;-89
2022/12/15 02:11:33;;;;;;;78.00;30.45;;;-4.50;99.90;;;;;;5074320;28;20537;-89
2022/12/15 02:14:05;;;;;;;73.60;30.15;;;-4.40;99.90;;;;;;5075932;28;20467;-89
2022/12/15 02:16:31;;;;;;;77.22;31.55;;;-4.40;99.90;;;;;;5074091;28;20056;-89
2022/12/15 02:19:36;;;;;;;74.20;29.80;;;-4.40;99.90;;;;;;5062863;28;20027;-89
2022/12/15 02:22:26;;;;;;;74.40;30.58;;;-4.40;99.90;;;;;;5049657;28;20061;-89
2022/12/15 02:25:07;;;;;;;79.25;31.02;;;-4.40;99.90;;;;;;5081004;28;20028;-89
2022/12/15 02:27:43;;;;;;;79.15;29.35;;;-4.40;99.90;;;;;;5091074;28;20468;-89
2022/12/15 02:30:25;;;;;;;75.22;30.42;;;-4.40;99.90;;;;;;5073592;28;20029;-89
2022/12/15 02:33:07;;;;;;;68.45;27.23;;;-4.40;99.90;;;;;;5086325;28;20475;-89
2022/12/15 02:35:42;;;;;;;69.47;27.90;;;-4.40;99.90;;;;;;5073883;28;20051;-89
2022/12/15 02:38:09;;;;;;;69.30;28.15;;;-4.40;99.90;;;;;;5057417;28;20055;-90
2022/12/15 02:40:36;;;;;;;71.40;29.30;;;-4.40;99.90;;;;;;5073843;28;20530;-89
2022/12/15 02:43:04;;;;;;;67.28;28.52;;;-4.40;99.90;;;;;;5073849;28;20476;-89
2022/12/15 02:46:09;;;;;;;73.88;30.33;;;-4.40;99.90;;;;;;5091096;28;20041;-89
2022/12/15 02:48:49;;;;;;;64.05;29.20;;;-4.40;99.90;;;;;;5075171;28;20029;-89
2022/12/15 02:51:36;;;;;;;67.95;27.70;;;-4.40;99.90;;;;;;5073445;28;20036;-88
2022/12/15 02:54:23;;;;;;;56.38;25.10;;;-4.40;99.90;;;;;;5073752;28;20140;-90
2022/12/15 02:57:16;;;;;;;61.30;25.85;;;-4.40;99.90;;;;;;5090965;28;20104;-90
2022/12/15 02:59:54;;;;;;;57.08;23.65;;;-4.30;99.90;;;;;;5073675;28;20021;-89
2022/12/15 03:02:23;;;;;;;58.88;24.45;;;-4.40;99.90;;;;;;5072355;28;20675;-89
2022/12/15 03:04:49;;;;;;;63.15;25.40;;;-4.30;99.90;;;;;;5073318;28;20049;-89
2022/12/15 03:07:37;;;;;;;79.93;30.58;;;-4.40;99.90;;;;;;5073247;28;20515;-89
2022/12/15 03:10:04;;;;;;;68.43;27.67;;;-4.30;99.90;;;;;;5053316;28;20032;-89
2022/12/15 03:12:30;;;;;;;70.68;28.67;;;-4.30;99.90;;;;;;5073215;28;20747;-88
2022/12/15 03:14:56;;;;;;;66.13;27.83;;;-4.30;99.90;;;;;;5073107;28;20016;-89
2022/12/15 03:17:22;;;;;;;62.08;26.60;;;-4.30;99.90;;;;;;5076930;28;20038;-89
2022/12/15 03:19:48;;;;;;;62.42;24.10;;;-4.20;99.90;;;;;;5073277;28;20095;-89
2022/12/15 03:22:19;;;;;;;65.82;26.45;;;-4.20;99.90;;;;;;5059872;28;20447;-89
2022/12/15 03:24:45;;;;;;;57.47;25.65;;;-4.20;99.90;;;;;;5073141;28;20380;-89
2022/12/15 03:27:10;;;;;;;58.40;25.15;;;-4.20;99.90;;;;;;5073056;28;20035;-90
2022/12/15 03:29:36;;;;;;;57.95;23.48;;;-4.20;99.90;;;;;;5072764;28;20032;-89
2022/12/15 03:32:02;;;;;;;56.20;23.70;;;-4.20;99.90;;;;;;5073085;28;20153;-89
2022/12/15 03:34:27;;;;;;;56.30;24.42;;;-4.20;99.90;;;;;;5072912;28;20081;-87
2022/12/15 03:36:53;;;;;;;55.67;22.45;;;-4.20;99.90;;;;;;5055394;28;20025;-89
2022/12/15 03:39:19;;;;;;;57.53;25.40;;;-4.10;99.90;;;;;;5074268;28;20448;-89
2022/12/15 03:41:44;;;;;;;63.85;24.00;;;-4.20;99.90;;;;;;5072910;28;20502;-89
2022/12/15 03:44:10;;;;;;;59.00;24.70;;;-4.20;99.90;;;;;;5056310;28;20029;-89
2022/12/15 03:46:36;;;;;;;59.72;26.25;;;-4.10;99.90;;;;;;5089687;28;20029;-89
2022/12/15 03:49:01;;;;;;;56.55;24.50;;;-4.20;99.90;;;;;;5072880;28;20062;-89
2022/12/15 03:51:27;;;;;;;64.95;24.77;;;-4.20;99.90;;;;;;5077617;28;20116;-90
2022/12/15 03:53:53;;;;;;;55.67;25.77;;;-4.20;99.90;;;;;;5072881;28;20032;-89
2022/12/15 03:56:19;;;;;;;67.70;27.38;;;-4.30;99.90;;;;;;5060586;28;20021;-89
2022/12/15 03:58:44;;;;;;;73.13;28.70;;;-4.20;99.90;;;;;;5072851;28;20016;-89
2022/12/15 04:01:19;;;;;;;62.78;27.77;;;-4.30;99.90;;;;;;5070018;28;20079;-89
2022/12/15 04:03:45;;;;;;;67.63;28.80;;;-4.20;99.90;;;;;;5088993;28;20028;-90
2022/12/15 04:06:11;;;;;;;58.15;24.75;;;-4.20;99.90;;;;;;5089720;28;20116;-90
2022/12/15 04:08:36;;;;;;;65.10;26.17;;;-4.20;99.90;;;;;;5072512;28;20024;-88
2022/12/15 04:11:02;;;;;;;152.95;45.72;;;-4.20;99.90;;;;;;5073745;28;20029;-89
2022/12/15 04:13:28;;;;;;;91.03;36.80;;;-4.10;99.90;;;;;;5055539;28;20047;-90
2022/12/15 04:15:53;;;;;;;60.85;27.88;;;-4.20;99.90;;;;;;5072611;28;20185;-89
2022/12/15 04:18:20;;;;;;;52.85;24.45;;;-4.20;99.90;;;;;;5056232;28;20068;-89
2022/12/15 04:20:46;;;;;;;54.25;24.08;;;-4.20;99.90;;;;;;5072501;28;20032;-89
2022/12/15 04:23:13;;;;;;;55.60;22.80;;;-4.20;99.90;;;;;;5059203;28;20503;-89
2022/12/15 05:33:05;;;;;;;48.78;21.02;;;-4.30;99.90;;;;;;5073720;28;20032;-89
2022/12/15 05:35:31;;;;;;;52.85;22.50;;;-4.30;99.90;;;;;;5059843;28;20066;-89
2022/12/15 05:37:56;;;;;;;42.38;19.20;;;-4.20;99.90;;;;;;5074453;28;20036;-89
2022/12/15 05:40:22;;;;;;;47.03;20.48;;;-4.20;99.90;;;;;;5074436;28;20025;-89
2022/12/15 05:42:48;;;;;;;44.35;18.73;;;-4.20;99.90;;;;;;5074674;28;20012;-89
2022/12/15 05:45:13;;;;;;;47.40;19.10;;;-4.20;99.90;;;;;;5091216;28;20083;-89
2022/12/15 05:47:39;;;;;;;42.53;18.88;;;-4.20;99.90;;;;;;5074175;28;20048;-90
2022/12/15 05:50:05;;;;;;;51.53;19.45;;;-4.20;99.90;;;;;;5074358;28;20019;-89
2022/12/15 05:52:31;;;;;;;42.17;18.05;;;-4.20;99.90;;;;;;5057534;28;20025;-89
2022/12/15 05:54:57;;;;;;;44.50;19.60;;;-4.30;99.90;;;;;;5073946;28;20035;-89
2022/12/15 05:57:22;;;;;;;44.10;18.90;;;-4.30;99.90;;;;;;5073985;28;20031;-89
2022/12/15 05:59:48;;;;;;;43.80;18.75;;;-4.30;99.90;;;;;;5074088;28;20019;-90
2022/12/15 06:02:14;;;;;;;39.95;19.45;;;-4.30;99.90;;;;;;5074156;28;20025;-90
2022/12/15 06:04:40;;;;;;;45.72;19.98;;;-4.40;99.90;;;;;;5074019;28;20375;-89
2022/12/15 06:07:05;;;;;;;42.95;19.90;;;-4.40;99.90;;;;;;5070889;28;20029;-90
2022/12/15 06:09:31;;;;;;;44.83;19.13;;;-4.40;99.90;;;;;;5072259;28;20112;-90
2022/12/15 06:11:57;;;;;;;47.55;20.38;;;-4.50;99.90;;;;;;5090750;28;20024;-89
2022/12/15 06:14:22;;;;;;;46.40;18.33;;;-4.60;99.90;;;;;;5073120;28;20024;-89
2022/12/15 06:16:48;;;;;;;42.08;19.10;;;-4.60;99.90;;;;;;5070462;28;20112;-89
2022/12/15 06:19:14;;;;;;;41.63;18.92;;;-4.80;99.90;;;;;;5073145;28;20077;-89
2022/12/15 06:21:39;;;;;;;51.30;21.13;;;-5.00;99.90;;;;;;5073297;28;20056;-89
2022/12/15 06:24:05;;;;;;;59.63;22.58;;;-5.10;99.90;;;;;;5073407;28;20028;-89
2022/12/15 06:26:36;;;;;;;49.97;21.08;;;-5.30;99.90;;;;;;5056420;28;20039;-90
2022/12/15 06:29:04;;;;;;;57.58;22.55;;;-5.40;99.90;;;;;;5073404;28;20024;-89
2022/12/15 06:31:31;;;;;;;51.38;20.65;;;-5.50;99.90;;;;;;5073960;28;20032;-89
2022/12/15 06:33:57;;;;;;;46.53;18.42;;;-5.70;99.90;;;;;;5089901;28;20021;-89
2022/12/15 06:36:32;;;;;;;42.88;18.50;;;-5.80;99.90;;;;;;5074207;28;20476;-89
2022/12/15 06:38:59;;;;;;;48.40;21.15;;;-6.00;99.90;;;;;;5073364;28;20097;-89
2022/12/15 06:41:26;;;;;;;51.50;21.38;;;-6.00;99.90;;;;;;5056317;28;20494;-90
2022/12/15 06:43:54;;;;;;;62.60;22.80;;;-6.10;99.90;;;;;;5073346;28;20063;-89
2022/12/15 06:46:20;;;;;;;54.95;20.75;;;-6.20;99.90;;;;;;5073071;28;20040;-90
2022/12/15 06:48:46;;;;;;;58.88;22.52;;;-6.30;99.90;;;;;;5072845;28;20028;-89
2022/12/15 06:51:13;;;;;;;64.55;26.23;;;-6.50;99.90;;;;;;5073117;28;20461;-89
2022/12/15 06:53:40;;;;;;;58.28;22.35;;;-6.60;99.90;;;;;;5089545;28;20024;-90
2022/12/15 06:56:12;;;;;;;66.00;24.40;;;-6.70;99.90;;;;;;5073110;28;20425;-89
2022/12/15 06:58:38;;;;;;;58.55;22.00;;;-6.90;99.90;;;;;;5063784;28;20025;-89
2022/12/15 07:01:14;;;;;;;56.80;22.52;;;-6.90;99.90;;;;;;5071068;28;20036;-89
2022/12/15 07:03:41;;;;;;;69.03;27.13;;;-6.90;99.90;;;;;;5073123;28;20483;-89
2022/12/15 07:06:10;;;;;;;66.80;26.52;;;-7.00;99.90;;;;;;5066244;28;20396;-89
2022/12/15 07:08:36;;;;;;;63.33;23.38;;;-7.20;99.90;;;;;;5072271;28;20033;-89
2022/12/15 07:11:04;;;;;;;58.67;24.70;;;-7.30;99.90;;;;;;5036580;28;20048;-89
2022/12/15 07:13:29;;;;;;;75.30;26.38;;;-7.30;99.90;;;;;;5069768;28;20158;-89
2022/12/15 07:16:03;;;;;;;74.03;27.30;;;-7.30;99.90;;;;;;5057741;28;20046;-89
2022/12/15 07:18:29;;;;;;;65.45;25.58;;;-7.40;99.90;;;;;;5068175;28;20033;-88
2022/12/15 07:21:03;;;;;;;74.20;29.67;;;-7.40;99.90;;;;;;5049322;28;20036;-88
2022/12/15 07:23:29;;;;;;;71.72;28.58;;;-7.30;99.90;;;;;;5082917;28;20025;-88
2022/12/15 07:25:55;;;;;;;93.63;34.03;;;-7.30;99.90;;;;;;5059154;28;20115;-88
2022/12/15 07:28:21;;;;;;;91.28;35.50;;;-7.30;99.90;;;;;;5068453;28;20183;-88
2022/12/15 07:30:47;;;;;;;74.50;30.00;;;-7.30;99.90;;;;;;5064344;28;20028;-88
2022/12/15 07:33:13;;;;;;;66.90;27.40;;;-7.20;99.90;;;;;;5063342;28;20098;-89
2022/12/15 07:35:40;;;;;;;65.13;26.75;;;-7.20;99.90;;;;;;5050198;28;20040;-89
2022/12/15 07:38:25;;;;;;;69.25;25.77;;;-7.10;99.90;;;;;;5058585;28;20025;-88
2022/12/15 07:40:51;;;;;;;70.30;26.27;;;-7.10;99.90;;;;;;5053220;28;20021;-89
2022/12/15 07:43:16;;;;;;;79.82;28.33;;;-6.90;99.90;;;;;;5065540;28;20021;-88
2022/12/15 07:46:13;;;;;;;72.47;28.02;;;-6.90;99.90;;;;;;5066127;28;20029;-89
2022/12/15 07:48:39;;;;;;;77.78;27.27;;;-6.80;99.90;;;;;;5079668;28;20464;-89
2022/12/15 07:51:05;;;;;;;74.00;25.73;;;-6.70;99.90;;;;;;5068477;28;20059;-89
2022/12/15 07:53:31;;;;;;;70.40;26.52;;;-6.60;99.90;;;;;;5059668;28;20392;-89
2022/12/15 07:55:59;;;;;;;69.20;27.02;;;-6.40;99.90;;;;;;5034026;28;20029;-88
2022/12/15 07:58:26;;;;;;;64.28;26.73;;;-6.30;99.90;;;;;;5059782;28;20048;-88
2022/12/15 08:00:53;;;;;;;63.80;23.83;;;-6.30;99.90;;;;;;5073758;28;20052;-88
2022/12/15 08:03:18;;;;;;;68.53;25.85;;;-6.30;99.90;;;;;;5071961;28;20021;-89
2022/12/15 08:05:45;;;;;;;60.50;23.42;;;-6.30;99.90;;;;;;5072858;28;20029;-89
2022/12/15 08:08:10;;;;;;;64.30;23.73;;;-6.30;99.90;;;;;;5073475;28;20508;-88
2022/12/15 08:10:39;;;;;;;63.10;24.65;;;-6.20;99.90;;;;;;5067302;28;20057;-89
2022/12/15 08:13:05;;;;;;;71.07;25.40;;;-6.10;99.90;;;;;;5074693;28;20039;-89
2022/12/15 08:15:34;;;;;;;60.30;24.13;;;-6.00;99.90;;;;;;5063842;28;20021;-88
2022/12/15 08:18:00;;;;;;;66.78;25.02;;;-5.80;99.90;;;;;;5069224;28;20783;-89
2022/12/15 08:20:26;;;;;;;59.83;23.20;;;-5.80;99.90;;;;;;5072830;28;20033;-89
2022/12/15 08:22:51;;;;;;;56.88;22.20;;;-5.80;99.90;;;;;;5068060;28;20072;-89
2022/12/15 08:25:17;;;;;;;61.25;23.00;;;-5.70;99.90;;;;;;5052008;28;20024;-88
2022/12/15 08:27:43;;;;;;;56.78;20.27;;;-5.70;99.90;;;;;;5066646;28;20028;-89
2022/12/15 08:30:09;;;;;;;59.75;24.33;;;-5.60;99.90;;;;;;5058530;28;20387;-88
2022/12/15 08:32:35;;;;;;;53.42;21.35;;;-5.40;99.90;;;;;;5069333;28;20021;-89
2022/12/15 08:35:01;;;;;;;53.90;22.33;;;-5.20;99.90;;;;;;5067352;28;20025;-89
2022/12/15 08:37:26;;;;;;;54.78;20.65;;;-5.10;99.90;;;;;;5088758;28;20028;-89
2022/12/15 08:39:52;;;;;;;61.85;24.90;;;-5.00;99.90;;;;;;5070980;28;20025;-89
2022/12/15 08:42:18;;;;;;;66.05;25.40;;;-5.00;99.90;;;;;;5062566;28;20788;-89
2022/12/15 08:44:53;;;;;;;81.55;28.98;;;-4.90;99.90;;;;;;5066070;28;20033;-89
2022/12/15 08:47:18;;;;;;;62.05;24.48;;;-4.90;99.90;;;;;;5070007;28;20121;-89
2022/12/15 08:49:44;;;;;;;53.63;22.20;;;-4.70;99.90;;;;;;5054257;28;20159;-89
2022/12/15 08:52:11;;;;;;;51.63;20.95;;;-4.60;99.90;;;;;;5070760;28;20036;-88
2022/12/15 08:54:37;;;;;;;48.08;20.45;;;-4.40;99.90;;;;;;5065212;28;20044;-88
2022/12/15 08:57:02;;;;;;;46.25;19.65;;;-4.30;99.90;;;;;;5070500;28;20468;-88
2022/12/15 08:59:28;;;;;;;48.67;20.73;;;-4.10;99.90;;;;;;5088385;28;20103;-88
2022/12/15 09:01:54;;;;;;;49.58;20.10;;;-4.00;99.90;;;;;;5070915;28;20059;-88
2022/12/15 09:04:19;;;;;;;47.38;20.73;;;-3.80;99.90;;;;;;5066163;28;20057;-88
2022/12/15 09:06:45;;;;;;;50.40;20.58;;;-3.60;99.90;;;;;;5066839;28;20051;-88
2022/12/15 09:09:12;;;;;;;48.53;20.35;;;-3.50;99.90;;;;;;5049050;28;20492;-88
2022/12/15 09:11:38;;;;;;;50.28;18.27;;;-3.50;99.90;;;;;;5073178;28;20035;-88
2022/12/15 09:14:05;;;;;;;42.45;18.83;;;-3.40;99.90;;;;;;5068753;28;20032;-88
2022/12/15 09:16:31;;;;;;;42.85;18.33;;;-3.30;99.90;;;;;;5071171;28;20521;-88
2022/12/15 09:18:58;;;;;;;41.70;18.83;;;-3.10;99.90;;;;;;5065957;28;20032;-88
2022/12/15 09:21:27;;;;;;;40.65;19.65;;;-3.00;99.90;;;;;;5069176;28;20029;-88
2022/12/15 09:23:59;;;;;;;52.88;22.58;;;-2.90;99.90;;;;;;5067063;28;20468;-89
2022/12/15 09:26:30;;;;;;;51.35;22.17;;;-2.70;99.90;;;;;;5073505;28;20044;-89
2022/12/15 09:28:56;;;;;;;51.67;21.60;;;-2.50;99.90;;;;;;5066483;28;20025;-89
2022/12/15 09:31:28;;;;;;;53.92;23.88;;;-2.30;99.90;;;;;;5071212;28;20056;-88
2022/12/15 09:33:57;;;;;;;47.10;20.83;;;-2.10;99.90;;;;;;5064998;28;20044;-88
2022/12/15 09:36:24;;;;;;;40.50;19.25;;;-1.90;99.90;;;;;;5071383;28;20036;-88
2022/12/15 09:38:50;;;;;;;43.95;21.38;;;-1.60;99.90;;;;;;5084140;28;20028;-89
2022/12/15 09:41:28;;;;;;;37.70;18.42;;;-1.20;99.90;;;;;;5087843;28;20021;-89
2022/12/15 09:43:58;;;;;;;36.25;18.08;;;-0.40;99.90;;;;;;5065301;28;20028;-89
2022/12/15 09:46:42;;;;;;;36.53;17.98;;;0.20;99.90;;;;;;5057523;28;20480;-89
2022/12/15 09:49:18;;;;;;;32.97;16.15;;;0.80;99.90;;;;;;5053871;28;20028;-89
2022/12/15 09:52:02;;;;;;;26.48;14.93;;;1.40;99.90;;;;;;5048976;28;20033;-89
2022/12/15 09:54:31;;;;;;;29.00;14.98;;;2.00;99.90;;;;;;5068487;28;20154;-89
2022/12/15 09:57:01;;;;;;;27.83;15.20;;;2.40;99.90;;;;;;5066663;28;20029;-90
2022/12/15 09:59:49;;;;;;;28.98;14.80;;;2.60;99.90;;;;;;5072912;28;20032;-91
2022/12/15 10:02:21;;;;;;;28.05;13.80;;;3.40;99.90;;;;;;5070932;28;20028;-90
2022/12/15 10:04:57;;;;;;;24.35;12.65;;;3.90;99.90;;;;;;5047910;28;20024;-89
2022/12/15 10:07:42;;;;;;;23.83;12.68;;;3.70;99.90;;;;;;5059093;28;20033;-90
2022/12/15 10:10:18;;;;;;;24.83;13.07;;;3.30;99.90;;;;;;5040572;28;20039;-91
2022/12/15 10:12:46;;;;;;;22.65;12.55;;;3.60;99.90;;;;;;5073079;28;20029;-90
2022/12/15 10:15:27;;;;;;;18.70;11.15;;;3.40;99.90;;;;;;5073216;28;20020;-89
2022/12/15 10:18:18;;;;;;;21.77;11.18;;;2.70;99.90;;;;;;5049486;28;20024;-89
2022/12/15 10:20:43;;;;;;;22.83;11.70;;;2.30;99.90;;;;;;5079097;28;20105;-89
2022/12/15 10:23:13;;;;;;;21.52;11.55;;;1.80;99.90;;;;;;5080779;28;20024;-89
2022/12/15 10:25:45;;;;;;;18.98;10.50;;;1.80;99.90;;;;;;5071273;28;20033;-89
2022/12/15 10:28:14;;;;;;;19.88;10.55;;;1.60;99.90;;;;;;5066113;28;20599;-89
2022/12/15 10:30:50;;;;;;;21.73;11.95;;;1.10;99.90;;;;;;5061503;28;20021;-88
2022/12/15 10:33:18;;;;;;;23.25;10.82;;;0.80;99.90;;;;;;5064439;28;20480;-89
2022/12/15 10:35:45;;;;;;;18.85;10.57;;;0.50;99.90;;;;;;5055502;28;20017;-89
2022/12/15 10:38:30;;;;;;;20.63;10.63;;;0.40;99.90;;;;;;5078784;28;20028;-88
2022/12/15 10:41:00;;;;;;;17.13;9.23;;;0.20;99.90;;;;;;5069586;28;20020;-88
2022/12/15 10:43:39;;;;;;;20.95;10.60;;;0.10;99.90;;;;;;5075337;28;20029;-88
2022/12/15 10:46:12;;;;;;;20.80;10.65;;;-0.10;99.90;;;;;;5071206;28;20020;-88
2022/12/15 10:48:39;;;;;;;17.95;8.63;;;-0.30;99.90;;;;;;5072351;28;20028;-88
2022/12/15 10:51:16;;;;;;;20.08;11.00;;;-0.50;99.90;;;;;;5053727;28;20017;-88
2022/12/15 10:53:45;;;;;;;19.00;9.85;;;-0.70;99.90;;;;;;5087088;28;20041;-88
2022/12/15 10:56:24;;;;;;;20.23;10.15;;;-0.70;99.90;;;;;;5068483;28;20510;-88
2022/12/15 10:58:53;;;;;;;23.77;10.68;;;-0.70;99.90;;;;;;5073640;28;20053;-88
2022/12/15 11:01:23;;;;;;;26.67;11.85;;;-0.80;99.90;;;;;;5070481;28;20472;-88
2022/12/15 11:03:53;;;;;;;26.20;13.20;;;-0.80;99.90;;;;;;5065461;28;20076;-88
2022/12/15 11:06:28;;;;;;;28.15;12.85;;;-0.90;99.90;;;;;;5051119;28;20179;-88
2022/12/15 11:09:05;;;;;;;30.15;13.25;;;-0.80;99.90;;;;;;5057860;28;20761;-88
2022/12/15 11:14:24;;;;;;;29.75;12.57;;;-0.80;99.90;;;;;;5070197;28;20107;-88
2022/12/15 11:16:53;;;;;;;29.67;12.68;;;-0.70;99.90;;;;;;5067302;28;20070;-88
2022/12/15 11:19:35;;;;;;;32.35;14.60;;;-0.60;99.90;;;;;;5078538;28;20365;-88
2022/12/15 11:22:17;;;;;;;23.88;9.73;;;-0.50;99.90;;;;;;5063922;28;20086;-88
2022/12/15 11:25:19;;;;;;;23.63;11.15;;;-0.50;99.90;;;;;;5065477;28;20032;-89
2022/12/15 11:27:47;;;;;;;23.35;10.43;;;-0.40;99.90;;;;;;5029182;28;20040;-88
2022/12/15 11:30:19;;;;;;;20.55;10.25;;;-0.20;99.90;;;;;;5076138;28;20053;-88
2022/12/15 11:32:54;;;;;;;17.30;8.55;;;0.10;99.90;;;;;;5066498;28;20065;-89
2022/12/15 11:35:44;;;;;;;21.50;9.23;;;0.30;99.90;;;;;;5076353;28;20037;-89
2022/12/15 11:38:13;;;;;;;20.85;9.93;;;0.40;99.90;;;;;;5068536;28;20056;-89
2022/12/15 11:41:24;;;;;;;19.40;9.02;;;0.70;99.90;;;;;;5081159;28;20067;-88
2022/12/15 11:44:00;;;;;;;16.88;9.13;;;0.90;99.90;;;;;;5075481;28;20107;-88
2022/12/15 11:46:55;;;;;;;15.98;8.18;;;0.70;99.90;;;;;;5081465;28;20032;-88
2022/12/15 11:49:45;;;;;;;21.00;8.93;;;0.60;99.90;;;;;;5033898;28;20056;-89
2022/12/15 11:52:42;;;;;;;18.23;9.18;;;0.30;99.90;;;;;;5065797;28;20841;-88
2022/12/15 11:55:32;;;;;;;17.13;8.50;;;-0.10;99.90;;;;;;5076004;28;20037;-88
2022/12/15 11:58:39;;;;;;;18.17;8.25;;;-0.40;99.90;;;;;;5063673;28;20075;-87
2022/12/15 12:01:31;;;;;;;20.15;9.38;;;-0.70;99.90;;;;;;5039751;28;20116;-88
2022/12/15 12:04:22;;;;;;;16.27;8.38;;;-0.80;99.90;;;;;;5060929;28;20028;-88
2022/12/15 12:07:17;;;;;;;15.85;7.55;;;-0.90;99.90;;;;;;5082726;28;20033;-87
2022/12/15 12:09:59;;;;;;;16.65;8.18;;;-1.00;99.90;;;;;;5051854;28;20033;-88
2022/12/15 12:12:32;;;;;;;15.30;7.97;;;-1.10;99.90;;;;;;5066122;28;20086;-87
2022/12/15 12:15:33;;;;;;;15.68;7.75;;;-1.20;99.90;;;;;;5056940;28;20031;-88
2022/12/15 12:18:20;;;;;;;16.38;8.48;;;-1.30;99.90;;;;;;5039869;28;20037;-88
2022/12/15 12:21:06;;;;;;;20.65;9.15;;;-1.30;99.90;;;;;;5054278;28;20052;-87
2022/12/15 12:23:39;;;;;;;16.98;7.93;;;-1.40;99.90;;;;;;5077264;28;20033;-88
2022/12/15 12:26:16;;;;;;;15.82;7.25;;;-1.40;99.90;;;;;;5067405;28;20028;-87
2022/12/15 12:29:13;;;;;;;13.10;6.60;;;-1.30;99.90;;;;;;5040509;28;20033;-88
2022/12/15 12:31:57;;;;;;;14.35;7.75;;;-1.20;99.90;;;;;;5064272;28;20037;-88
2022/12/15 12:34:32;;;;;;;16.52;6.85;;;-1.20;99.90;;;;;;5065885;28;20439;-88
2022/12/15 12:37:12;;;;;;;12.60;6.78;;;-1.10;99.90;;;;;;5077630;28;20472;-88
2022/12/15 12:39:38;;;;;;;13.50;6.97;;;-1.10;99.90;;;;;;5073478;28;20033;-88
2022/12/15 12:42:29;;;;;;;13.77;6.45;;;-1.10;99.90;;;;;;5061106;28;20499;-88
2022/12/15 12:44:55;;;;;;;10.68;5.88;;;-1.10;99.90;;;;;;5069474;28;20024;-88
2022/12/15 12:47:26;;;;;;;13.68;7.07;;;-1.10;99.90;;;;;;5052070;28;20029;-88
2022/12/15 12:50:00;;;;;;;13.38;6.93;;;-1.00;99.90;;;;;;5073304;28;20564;-88
2022/12/15 12:52:29;;;;;;;15.60;7.28;;;-0.90;99.90;;;;;;5080299;28;20067;-88
2022/12/15 12:55:12;;;;;;;14.75;6.75;;;-1.00;99.90;;;;;;5071605;28;20463;-88
2022/12/15 12:57:44;;;;;;;14.88;7.80;;;-1.00;99.90;;;;;;5058617;28;20061;-88
2022/12/15 13:00:26;;;;;;;16.55;7.97;;;-1.00;99.90;;;;;;5067156;28;20052;-88
2022/12/15 13:02:51;;;;;;;19.33;8.80;;;-1.00;99.90;;;;;;5069267;28;20024;-88
2022/12/15 13:05:32;;;;;;;18.63;8.68;;;-1.00;99.90;;;;;;5074102;28;20024;-88
2022/12/15 13:08:04;;;;;;;20.00;8.68;;;-1.00;99.90;;;;;;5079353;28;20476;-88
2022/12/15 13:10:32;;;;;;;19.92;8.80;;;-1.10;99.90;;;;;;5076288;28;20028;-88
2022/12/15 13:13:35;;;;;;;19.40;9.50;;;-1.20;99.90;;;;;;5074942;28;20464;-88
2022/12/15 13:16:09;;;;;;;22.63;10.63;;;-1.30;99.90;;;;;;5074853;28;20021;-88
2022/12/15 13:18:54;;;;;;;25.23;11.00;;;-1.30;99.90;;;;;;5054917;28;20029;-88
2022/12/15 13:21:43;;;;;;;23.08;10.27;;;-1.30;99.90;;;;;;5085740;28;20112;-88
2022/12/15 13:24:36;;;;;;;23.40;11.07;;;-1.30;99.90;;;;;;5073727;28;20035;-88
2022/12/15 13:27:12;;;;;;;21.55;10.23;;;-1.40;99.90;;;;;;5090072;28;20138;-88
2022/12/15 13:29:57;;;;;;;26.55;11.73;;;-1.30;99.90;;;;;;5057022;28;20098;-88
2022/12/15 13:32:43;;;;;;;23.88;11.73;;;-1.30;99.90;;;;;;5063460;28;20028;-88
2022/12/15 13:35:12;;;;;;;29.80;11.93;;;-1.20;99.90;;;;;;5073212;28;20032;-89
2022/12/15 13:38:01;;;;;;;29.90;12.38;;;-1.30;99.90;;;;;;5056339;28;20154;-88
2022/12/15 13:40:33;;;;;;;30.27;11.80;;;-1.30;99.90;;;;;;5065419;28;20028;-88
2022/12/15 13:43:05;;;;;;;23.35;11.00;;;-1.40;99.90;;;;;;5056872;28;20611;-87
2022/12/15 13:45:42;;;;;;;24.25;11.68;;;-1.40;99.90;;;;;;5079840;28;20046;-88
2022/12/15 13:48:38;;;;;;;24.85;10.95;;;-1.40;99.90;;;;;;5080154;28;20683;-88
2022/12/15 13:51:13;;;;;;;26.75;11.13;;;-1.40;99.90;;;;;;5060839;28;20043;-88
2022/12/15 13:53:43;;;;;;;23.23;11.63;;;-1.50;99.90;;;;;;5068505;28;20119;-88
2022/12/15 13:56:28;;;;;;;21.23;10.50;;;-1.60;99.90;;;;;;5089784;28;20028;-87
2022/12/15 13:59:01;;;;;;;28.23;12.20;;;-1.80;99.90;;;;;;5072612;28;20036;-88
2022/12/15 14:01:29;;;;;;;26.40;11.25;;;-1.90;99.90;;;;;;5077585;28;20036;-87
2022/12/15 14:04:02;;;;;;;28.70;12.00;;;-1.90;99.90;;;;;;5072069;28;20033;-87
2022/12/15 14:06:34;;;;;;;24.38;9.73;;;-2.00;99.90;;;;;;5089941;28;20111;-89
2022/12/15 14:09:00;;;;;;;22.17;10.18;;;-2.00;99.90;;;;;;5075847;28;20067;-87
2022/12/15 14:11:30;;;;;;;20.98;9.65;;;-2.10;99.90;;;;;;5075570;28;20024;-88
2022/12/15 14:14:00;;;;;;;28.57;11.50;;;-2.10;99.90;;;;;;5064915;28;20112;-88
2022/12/15 14:16:27;;;;;;;27.02;11.30;;;-2.10;99.90;;;;;;5073271;28;20029;-87
2022/12/15 14:19:03;;;;;;;24.42;10.50;;;-2.20;99.90;;;;;;5062715;28;20115;-88
2022/12/15 14:21:29;;;;;;;31.35;13.23;;;-2.30;99.90;;;;;;5074418;28;20392;-88
2022/12/15 14:23:56;;;;;;;29.00;12.45;;;-2.20;99.90;;;;;;5073849;28;20039;-88
2022/12/15 14:26:30;;;;;;;27.42;10.80;;;-2.30;99.90;;;;;;5074283;28;20444;-88
2022/12/15 14:29:04;;;;;;;21.80;10.50;;;-2.30;99.90;;;;;;5090675;28;20384;-87
2022/12/15 14:31:30;;;;;;;25.95;11.40;;;-2.40;99.90;;;;;;5074212;28;20032;-88
2022/12/15 14:34:04;;;;;;;23.33;11.15;;;-2.40;99.90;;;;;;5084879;28;20033;-88
2022/12/15 14:36:31;;;;;;;26.63;12.25;;;-2.40;99.90;;;;;;5072195;28;20271;-87
2022/12/15 14:39:16;;;;;;;27.58;12.77;;;-2.40;99.90;;;;;;5071605;28;20100;-88
2022/12/15 14:41:45;;;;;;;26.30;12.48;;;-2.50;99.90;;;;;;5072128;28;20115;-88
2022/12/15 14:44:32;;;;;;;34.55;14.40;;;-2.60;99.90;;;;;;5072554;28;20040;-88
2022/12/15 14:47:01;;;;;;;31.38;13.35;;;-2.70;99.90;;;;;;5071427;28;20028;-88
2022/12/15 14:49:31;;;;;;;30.70;12.93;;;-2.80;99.90;;;;;;5072266;28;20040;-88
2022/12/15 14:52:03;;;;;;;35.13;14.25;;;-2.90;99.90;;;;;;5072393;28;20025;-88
2022/12/15 14:54:35;;;;;;;31.90;13.88;;;-2.90;99.90;;;;;;5068762;28;20040;-87
2022/12/15 14:57:26;;;;;;;30.10;14.10;;;-2.90;99.90;;;;;;5075748;28;20691;-87
2022/12/15 14:59:52;;;;;;;32.05;14.10;;;-2.90;99.90;;;;;;5071923;28;20058;-88
2022/12/15 15:02:27;;;;;;;36.85;15.32;;;-2.90;99.90;;;;;;5071459;28;20025;-88
2022/12/15 15:05:06;;;;;;;28.73;14.27;;;-2.90;99.90;;;;;;5071461;28;20028;-88
2022/12/15 15:07:34;;;;;;;31.10;14.98;;;-3.00;99.90;;;;;;5070687;28;20514;-87
2022/12/15 15:10:18;;;;;;;34.90;15.27;;;-2.90;99.90;;;;;;5071700;28;20567;-87
2022/12/15 15:12:46;;;;;;;38.42;16.42;;;-3.00;99.90;;;;;;5071810;28;20036;-88
2022/12/15 15:15:19;;;;;;;34.85;15.20;;;-3.00;99.90;;;;;;5088681;28;20062;-88